Time;durP1;ratioP1;P1;durP2;ratioP2;P2;SDS_P1;SDS_P2;PMS_P1;PMS_P2;Temp;Humidity;BMP_temperature;BMP_pressure;BME280_temperature;BME280_humidity;BME280_pressure;Samples;Min_cycle;Max_cycle;Signal;HPM_P1;HPM_P2
2022/04/22 00:00:38;;;;;;;6.23;3.33;;;;;;;;;;4899123;29;20216;-79
2022/04/22 00:03:05;;;;;;;6.50;3.50;;;;;;;;;;4897802;29;20192;-78
2022/04/22 00:05:32;;;;;;;6.73;3.70;;;;;;;;;;4897286;29;20283;-78
2022/04/22 00:07:59;;;;;;;6.27;3.63;;;;;;;;;;4913684;29;20275;-78
2022/04/22 00:10:26;;;;;;;8.20;4.10;;;;;;;;;;4899197;29;20200;-78
2022/04/22 00:12:53;;;;;;;7.87;4.10;;;;;;;;;;4913484;29;20210;-78
2022/04/22 00:15:20;;;;;;;6.13;3.40;;;;;;;;;;4913379;29;20196;-78
2022/04/22 00:18:04;;;;;;;7.83;3.77;;;;;;;;;;4911248;29;20183;-78
2022/04/22 00:20:32;;;;;;;7.80;3.73;;;;;;;;;;4898261;29;20200;-78
2022/04/22 00:22:59;;;;;;;9.10;3.57;;;;;;;;;;4897571;29;20210;-79
2022/04/22 00:25:26;;;;;;;8.40;3.50;;;;;;;;;;4898558;29;20258;-78
2022/04/22 00:27:52;;;;;;;7.50;3.60;;;;;;;;;;4898762;29;20746;-78
2022/04/22 00:30:36;;;;;;;7.23;3.20;;;;;;;;;;4897636;29;20183;-79
2022/04/22 00:33:04;;;;;;;7.83;3.27;;;;;;;;;;4898540;29;20200;-78
2022/04/22 00:35:48;;;;;;;7.27;3.40;;;;;;;;;;4898403;29;20592;-78
2022/04/22 00:38:15;;;;;;;5.17;3.50;;;;;;;;;;4898474;29;20578;-78
2022/04/22 00:41:00;;;;;;;8.27;3.20;;;;;;;;;;4913744;29;20172;-78
2022/04/22 00:43:27;;;;;;;6.50;3.40;;;;;;;;;;4917524;29;20219;-78
2022/04/22 00:45:54;;;;;;;6.17;3.30;;;;;;;;;;4917390;29;20216;-78
2022/04/22 00:48:21;;;;;;;7.03;3.00;;;;;;;;;;4885072;29;20678;-78
2022/04/22 00:50:48;;;;;;;5.67;2.97;;;;;;;;;;4916102;29;20236;-79
2022/04/22 00:53:15;;;;;;;7.90;2.90;;;;;;;;;;4893830;29;20617;-78
2022/04/22 00:55:42;;;;;;;6.53;2.70;;;;;;;;;;4913211;29;20208;-78
2022/04/22 00:58:09;;;;;;;5.30;3.17;;;;;;;;;;4898358;29;20199;-78
2022/04/22 01:00:55;;;;;;;5.73;3.13;;;;;;;;;;4910561;29;20183;-79
2022/04/22 01:03:22;;;;;;;6.07;2.77;;;;;;;;;;4881300;29;20192;-79
2022/04/22 01:11:55;;;;;;;7.30;3.37;;;;;;;;;;4898198;29;20172;-78
2022/04/22 01:14:22;;;;;;;8.33;3.27;;;;;;;;;;4897121;29;20192;-78
2022/04/22 01:17:08;;;;;;;6.27;3.30;;;;;;;;;;4897039;29;20173;-78
2022/04/22 01:19:36;;;;;;;8.40;3.90;;;;;;;;;;4897021;29;20279;-78
2022/04/22 01:22:03;;;;;;;8.13;3.93;;;;;;;;;;4896721;29;20228;-78
2022/04/22 01:24:31;;;;;;;8.23;3.73;;;;;;;;;;4897077;29;20279;-78
2022/04/22 01:26:58;;;;;;;7.40;3.90;;;;;;;;;;4897635;29;20224;-78
2022/04/22 01:29:25;;;;;;;6.60;3.73;;;;;;;;;;4896700;29;20189;-78
2022/04/22 01:31:54;;;;;;;7.93;4.07;;;;;;;;;;4897553;29;20252;-78
2022/04/22 01:34:21;;;;;;;8.77;4.00;;;;;;;;;;4896392;29;20238;-77
2022/04/22 01:36:48;;;;;;;9.70;4.13;;;;;;;;;;4897543;29;20197;-78
2022/04/22 01:39:15;;;;;;;9.60;4.97;;;;;;;;;;4899279;29;20188;-78
2022/04/22 01:41:42;;;;;;;9.60;4.27;;;;;;;;;;4879743;29;20200;-78
2022/04/22 01:44:26;;;;;;;8.03;4.43;;;;;;;;;;4879179;29;20184;-77
2022/04/22 01:46:53;;;;;;;7.80;4.50;;;;;;;;;;4878637;29;20216;-78
2022/04/22 01:49:38;;;;;;;10.67;4.57;;;;;;;;;;4878778;29;20308;-77
2022/04/22 01:52:07;;;;;;;9.23;4.80;;;;;;;;;;4877563;29;20711;-78
2022/04/22 01:54:34;;;;;;;9.97;5.10;;;;;;;;;;4877365;29;20213;-78
2022/04/22 01:57:03;;;;;;;8.20;4.80;;;;;;;;;;4878380;29;20200;-77
2022/04/22 01:59:29;;;;;;;8.23;4.63;;;;;;;;;;4891835;29;20188;-78
2022/04/22 02:01:58;;;;;;;7.80;4.57;;;;;;;;;;4895663;29;20283;-78
2022/04/22 02:04:25;;;;;;;8.03;4.93;;;;;;;;;;4895965;29;20192;-78
2022/04/22 02:06:52;;;;;;;9.07;4.87;;;;;;;;;;4896989;29;20212;-78
2022/04/22 02:09:37;;;;;;;10.33;5.17;;;;;;;;;;4896051;29;20174;-78
2022/04/22 02:12:05;;;;;;;11.67;5.73;;;;;;;;;;4896754;29;20196;-77
2022/04/22 02:14:49;;;;;;;7.93;4.33;;;;;;;;;;4895391;29;20183;-77
2022/04/22 02:17:16;;;;;;;9.20;4.23;;;;;;;;;;4895695;29;20287;-78
2022/04/22 02:20:01;;;;;;;6.97;3.87;;;;;;;;;;4896678;29;20191;-77
2022/04/22 02:22:28;;;;;;;6.10;3.50;;;;;;;;;;4896663;29;20192;-78
2022/04/22 02:24:57;;;;;;;8.33;3.77;;;;;;;;;;4897140;29;20293;-78
2022/04/22 02:30:09;;;;;;;7.00;3.47;;;;;;;;;;4895977;29;20695;-76
2022/04/22 02:32:36;;;;;;;7.82;3.83;;;;;;;;;;4895936;29;20478;-79
2022/04/22 02:35:04;;;;;;;7.13;3.83;;;;;;;;;;4896411;29;20228;-78
2022/04/22 02:37:30;;;;;;;7.27;3.57;;;;;;;;;;4864463;29;20192;-78
2022/04/22 02:39:57;;;;;;;5.53;3.30;;;;;;;;;;4886956;29;20183;-78
2022/04/22 02:45:27;;;;;;;6.40;3.50;;;;;;;;;;4903434;29;20187;-78
2022/04/22 02:47:56;;;;;;;7.37;3.30;;;;;;;;;;4894134;29;20688;-78
2022/04/22 02:50:24;;;;;;;6.73;3.67;;;;;;;;;;4895197;29;20286;-78
2022/04/22 02:52:50;;;;;;;5.87;3.37;;;;;;;;;;4896137;29;20283;-78
2022/04/22 02:55:17;;;;;;;6.53;3.23;;;;;;;;;;4880929;29;20197;-78
2022/04/22 02:58:01;;;;;;;5.83;3.50;;;;;;;;;;4876445;29;20771;-78
2022/04/22 03:00:28;;;;;;;6.77;3.17;;;;;;;;;;4880071;29;20192;-77
2022/04/22 03:02:55;;;;;;;5.57;3.80;;;;;;;;;;4877200;29;20193;-78
2022/04/22 03:05:22;;;;;;;6.00;3.30;;;;;;;;;;4889496;29;20196;-77
2022/04/22 03:07:48;;;;;;;5.27;3.30;;;;;;;;;;4894859;29;20220;-78
2022/04/22 03:10:15;;;;;;;5.90;3.60;;;;;;;;;;4895976;29;20202;-77
2022/04/22 03:12:43;;;;;;;5.03;3.30;;;;;;;;;;4894877;29;20200;-77
2022/04/22 03:15:10;;;;;;;8.10;3.43;;;;;;;;;;4864509;29;20552;-78
2022/04/22 03:17:37;;;;;;;5.07;3.23;;;;;;;;;;4896075;29;20192;-77
2022/04/22 03:20:04;;;;;;;4.70;3.50;;;;;;;;;;4879429;29;20190;-78
2022/04/22 03:22:32;;;;;;;6.10;3.60;;;;;;;;;;4895292;29;20204;-78
2022/04/22 03:25:00;;;;;;;5.03;3.53;;;;;;;;;;4879363;29;20290;-77
2022/04/22 03:27:27;;;;;;;6.90;3.73;;;;;;;;;;4879125;29;20227;-77
2022/04/22 03:29:54;;;;;;;7.30;3.60;;;;;;;;;;4896087;29;20323;-79
2022/04/22 03:32:20;;;;;;;5.23;3.80;;;;;;;;;;4878710;29;20200;-78
2022/04/22 03:34:47;;;;;;;7.77;4.03;;;;;;;;;;4895413;29;20628;-78
2022/04/22 03:37:14;;;;;;;5.93;3.50;;;;;;;;;;4895814;29;20200;-76
2022/04/22 03:39:58;;;;;;;7.23;3.93;;;;;;;;;;4898673;29;20191;-75
2022/04/22 03:42:27;;;;;;;6.10;4.00;;;;;;;;;;4903517;29;20309;-76
2022/04/22 03:45:13;;;;;;;6.60;3.97;;;;;;;;;;4900048;29;20207;-76
2022/04/22 03:47:40;;;;;;;4.97;3.73;;;;;;;;;;4902059;29;20230;-77
2022/04/22 03:50:07;;;;;;;5.90;3.80;;;;;;;;;;4907898;29;20251;-75
2022/04/22 03:52:34;;;;;;;5.90;3.67;;;;;;;;;;4895278;29;20236;-75
2022/04/22 03:55:01;;;;;;;5.97;3.53;;;;;;;;;;4906421;29;20199;-76
2022/04/22 04:00:13;;;;;;;4.67;3.50;;;;;;;;;;4906321;29;20221;-77
2022/04/22 04:02:40;;;;;;;6.80;3.60;;;;;;;;;;4905445;29;20210;-78
2022/04/22 04:05:07;;;;;;;6.37;3.73;;;;;;;;;;4897315;29;20195;-77
2022/04/22 04:07:34;;;;;;;5.87;3.73;;;;;;;;;;4905208;29;20235;-75
2022/04/22 04:18:18;;;;;;;10.03;3.63;;;;;;;;;;4899854;29;20208;-76
2022/04/22 04:23:30;;;;;;;6.53;3.27;;;;;;;;;;4901357;29;20211;-78
2022/04/22 04:25:56;;;;;;;6.37;2.90;;;;;;;;;;4907540;29;20239;-76
2022/04/22 04:28:27;;;;;;;4.23;3.00;;;;;;;;;;4907288;29;20224;-76
2022/04/22 04:30:57;;;;;;;5.43;2.90;;;;;;;;;;4903173;29;20210;-75
2022/04/22 04:33:24;;;;;;;5.17;3.00;;;;;;;;;;4903232;29;20733;-75
2022/04/22 04:35:51;;;;;;;4.03;2.70;;;;;;;;;;4909322;29;20192;-75
2022/04/22 04:38:18;;;;;;;3.17;2.33;;;;;;;;;;4906373;29;20657;-76
2022/04/22 04:40:45;;;;;;;6.10;2.67;;;;;;;;;;4903036;29;20616;-77
2022/04/22 04:43:12;;;;;;;5.27;2.70;;;;;;;;;;4891752;29;20203;-76
2022/04/22 04:45:38;;;;;;;5.07;2.67;;;;;;;;;;4889877;29;20550;-76
2022/04/22 04:48:07;;;;;;;3.67;2.23;;;;;;;;;;4911057;29;20219;-76
2022/04/22 04:50:34;;;;;;;3.67;2.43;;;;;;;;;;4900785;29;20244;-76
2022/04/22 04:53:01;;;;;;;5.07;2.50;;;;;;;;;;4900714;29;20187;-76
2022/04/22 04:55:28;;;;;;;4.63;2.50;;;;;;;;;;4916130;29;20270;-77
2022/04/22 04:57:55;;;;;;;5.33;2.50;;;;;;;;;;4901051;29;20200;-77
2022/04/22 05:00:22;;;;;;;3.70;2.30;;;;;;;;;;4868680;29;20228;-77
2022/04/22 05:02:49;;;;;;;3.63;2.63;;;;;;;;;;4896426;29;20623;-76
2022/04/22 05:05:16;;;;;;;4.60;2.47;;;;;;;;;;4897853;29;20188;-76
2022/04/22 05:07:47;;;;;;;4.40;2.40;;;;;;;;;;4897215;29;20226;-75
2022/04/22 05:10:14;;;;;;;3.10;2.00;;;;;;;;;;4897965;29;20189;-74
2022/04/22 05:12:42;;;;;;;8.07;2.50;;;;;;;;;;4874705;29;20193;-75
2022/04/22 05:15:10;;;;;;;3.27;2.00;;;;;;;;;;4879409;29;20204;-75
2022/04/22 05:17:41;;;;;;;2.73;1.80;;;;;;;;;;4878067;29;20199;-75
2022/04/22 05:20:09;;;;;;;5.03;1.83;;;;;;;;;;4878708;29;20208;-75
2022/04/22 05:22:37;;;;;;;2.30;1.70;;;;;;;;;;4881703;29;20199;-75
2022/04/22 05:25:04;;;;;;;3.70;1.83;;;;;;;;;;4881337;29;20682;-75
2022/04/22 05:27:32;;;;;;;2.17;1.60;;;;;;;;;;4897864;29;20208;-60
2022/04/22 05:33:03;;;;;;;2.90;1.83;;;;;;;;;;4896975;29;20211;-60
2022/04/22 05:35:30;;;;;;;3.30;1.80;;;;;;;;;;4896713;29;20904;-60
2022/04/22 05:38:03;;;;;;;2.47;1.73;;;;;;;;;;4897559;29;20658;-73
2022/04/22 05:40:39;;;;;;;2.60;1.50;;;;;;;;;;4881157;29;20240;-74
2022/04/22 05:43:07;;;;;;;4.53;1.60;;;;;;;;;;4897782;29;20277;-74
2022/04/22 05:45:34;;;;;;;3.87;1.37;;;;;;;;;;4896391;29;20199;-74
2022/04/22 05:48:01;;;;;;;3.70;1.63;;;;;;;;;;4896472;29;20216;-74
2022/04/22 05:50:45;;;;;;;2.97;1.47;;;;;;;;;;4903533;29;20533;-73
2022/04/22 05:53:12;;;;;;;3.67;1.80;;;;;;;;;;4891577;29;20256;-74
2022/04/22 05:55:39;;;;;;;2.17;1.50;;;;;;;;;;4894418;29;20268;-73
2022/04/22 05:58:05;;;;;;;3.00;1.33;;;;;;;;;;4902284;29;20195;-73
2022/04/22 06:00:32;;;;;;;3.33;1.23;;;;;;;;;;4895360;29;20207;-73
2022/04/22 06:03:00;;;;;;;2.00;1.50;;;;;;;;;;4906286;29;20204;-73
2022/04/22 06:05:27;;;;;;;1.90;1.33;;;;;;;;;;4904915;29;20770;-73
2022/04/22 06:10:41;;;;;;;2.03;1.40;;;;;;;;;;4894873;29;20198;-73
2022/04/22 06:13:08;;;;;;;1.83;1.30;;;;;;;;;;4903773;29;20283;-73
2022/04/22 06:15:35;;;;;;;2.27;1.57;;;;;;;;;;4900167;29;20264;-73
2022/04/22 06:18:19;;;;;;;2.07;1.07;;;;;;;;;;4906434;29;20255;-73
2022/04/22 06:20:48;;;;;;;2.00;1.37;;;;;;;;;;4906907;29;20222;-74
2022/04/22 06:23:34;;;;;;;1.73;1.30;;;;;;;;;;4904490;29;20276;-75
2022/04/22 06:26:01;;;;;;;3.37;1.43;;;;;;;;;;4906354;29;20290;-75
2022/04/22 06:28:28;;;;;;;1.67;1.47;;;;;;;;;;4893074;29;20237;-74
2022/04/22 06:31:02;;;;;;;3.43;1.50;;;;;;;;;;4895546;29;20312;-74
2022/04/22 06:33:29;;;;;;;1.40;1.07;;;;;;;;;;4899306;29;20202;-73
2022/04/22 06:35:55;;;;;;;1.87;1.33;;;;;;;;;;4906397;29;20283;-73
2022/04/22 06:38:22;;;;;;;2.73;1.30;;;;;;;;;;4882861;29;20239;-72
2022/04/22 06:46:21;;;;;;;2.17;1.10;;;;;;;;;;4899781;29;20188;-72
2022/04/22 06:48:48;;;;;;;1.70;1.27;;;;;;;;;;4892878;29;20695;-71
2022/04/22 06:51:17;;;;;;;2.10;1.10;;;;;;;;;;4878243;29;20227;-72
2022/04/22 06:54:01;;;;;;;0.93;0.83;;;;;;;;;;4894042;29;20263;-71
2022/04/22 06:56:28;;;;;;;1.63;1.23;;;;;;;;;;4890333;29;21294;-72
2022/04/22 06:59:12;;;;;;;3.23;1.13;;;;;;;;;;4904058;29;20275;-74
2022/04/22 07:01:39;;;;;;;1.30;1.00;;;;;;;;;;4890470;29;20206;-73
2022/04/22 07:04:10;;;;;;;1.40;1.20;;;;;;;;;;4901502;29;20204;-73
2022/04/22 07:06:38;;;;;;;3.77;1.70;;;;;;;;;;4906375;29;20226;-74
2022/04/22 07:09:05;;;;;;;2.40;2.10;;;;;;;;;;4905894;29;20775;-74
2022/04/22 07:11:32;;;;;;;5.30;2.43;;;;;;;;;;4904048;29;20202;-75
2022/04/22 07:13:59;;;;;;;3.10;2.30;;;;;;;;;;4887693;29;20710;-74
2022/04/22 07:16:26;;;;;;;3.73;2.33;;;;;;;;;;4907372;29;20251;-74
2022/04/22 07:18:59;;;;;;;4.53;2.50;;;;;;;;;;4905824;29;20302;-72
2022/04/22 07:21:26;;;;;;;4.17;2.30;;;;;;;;;;4900689;29;20192;-74
2022/04/22 07:23:55;;;;;;;4.00;2.30;;;;;;;;;;4891696;29;20214;-74
2022/04/22 07:26:25;;;;;;;5.10;2.60;;;;;;;;;;4903811;29;20297;-66
2022/04/22 07:28:52;;;;;;;4.40;2.10;;;;;;;;;;4907755;29;20219;-77
2022/04/22 07:31:19;;;;;;;3.13;2.20;;;;;;;;;;4906118;29;20247;-77
2022/04/22 07:34:07;;;;;;;6.07;2.57;;;;;;;;;;4895411;29;20257;-74
2022/04/22 07:36:36;;;;;;;12.87;2.93;;;;;;;;;;4898447;29;20211;-75
2022/04/22 07:39:04;;;;;;;3.43;2.20;;;;;;;;;;4905591;29;20207;-75
2022/04/22 07:41:31;;;;;;;2.60;2.20;;;;;;;;;;4888118;29;20273;-74
2022/04/22 07:47:08;;;;;;;2.53;1.93;;;;;;;;;;4902290;29;20234;-77
2022/04/22 07:49:35;;;;;;;3.30;2.13;;;;;;;;;;4900258;29;20324;-76
2022/04/22 07:52:03;;;;;;;2.73;1.80;;;;;;;;;;4901519;29;20314;-83
2022/04/22 07:54:31;;;;;;;2.53;1.70;;;;;;;;;;4904199;29;20211;-75
2022/04/22 07:56:57;;;;;;;4.00;1.83;;;;;;;;;;4890823;29;20828;-73
2022/04/22 07:59:26;;;;;;;2.83;1.67;;;;;;;;;;4905354;29;20192;-75
2022/04/22 08:01:53;;;;;;;4.30;2.03;;;;;;;;;;4901665;29;20203;-75
2022/04/22 08:04:20;;;;;;;2.93;1.80;;;;;;;;;;4906710;29;20224;-74
2022/04/22 08:06:47;;;;;;;3.07;1.70;;;;;;;;;;4909305;29;20196;-74
2022/04/22 08:09:34;;;;;;;3.33;1.70;;;;;;;;;;4906965;29;20203;-77
2022/04/22 08:12:02;;;;;;;2.13;1.73;;;;;;;;;;4896469;29;20246;-78
2022/04/22 08:14:28;;;;;;;1.67;1.50;;;;;;;;;;4900268;29;20617;-75
2022/04/22 08:16:55;;;;;;;6.27;1.87;;;;;;;;;;4894065;29;20296;-73
2022/04/22 08:19:23;;;;;;;1.40;1.30;;;;;;;;;;4894785;29;20664;-74
2022/04/22 08:21:50;;;;;;;6.20;1.63;;;;;;;;;;4902027;29;20987;-75
2022/04/22 08:24:17;;;;;;;1.60;1.50;;;;;;;;;;4893344;29;20208;-74
2022/04/22 08:26:44;;;;;;;2.27;1.47;;;;;;;;;;4907068;29;20196;-74
2022/04/22 08:29:11;;;;;;;1.90;1.70;;;;;;;;;;4891740;29;20926;-73
2022/04/22 08:31:42;;;;;;;2.20;1.77;;;;;;;;;;4907390;29;20279;-78
2022/04/22 08:34:26;;;;;;;3.70;1.80;;;;;;;;;;4902331;29;20246;-76
2022/04/22 08:36:52;;;;;;;2.60;1.70;;;;;;;;;;4895506;29;20248;-77
2022/04/22 08:39:37;;;;;;;9.30;1.87;;;;;;;;;;4906337;29;20228;-75
2022/04/22 08:42:05;;;;;;;2.83;1.80;;;;;;;;;;4904039;29;20191;-76
2022/04/22 08:44:49;;;;;;;2.80;1.83;;;;;;;;;;4908285;29;20190;-75
2022/04/22 08:50:09;;;;;;;2.13;1.60;;;;;;;;;;4893361;29;20292;-75
2022/04/22 08:52:37;;;;;;;2.30;1.97;;;;;;;;;;4891059;29;20829;-77
2022/04/22 08:55:06;;;;;;;2.83;1.80;;;;;;;;;;4909605;29;20203;-77
2022/04/22 08:57:33;;;;;;;4.60;1.90;;;;;;;;;;4880466;29;20301;-74
2022/04/22 09:00:04;;;;;;;5.57;2.10;;;;;;;;;;4909488;29;20227;-73
2022/04/22 09:02:31;;;;;;;3.33;2.17;;;;;;;;;;4907168;29;20204;-74
2022/04/22 09:04:57;;;;;;;6.97;2.70;;;;;;;;;;4903728;29;20196;-74
2022/04/22 09:07:26;;;;;;;2.60;2.07;;;;;;;;;;4907421;29;20199;-73
2022/04/22 09:10:11;;;;;;;3.97;2.20;;;;;;;;;;4900531;29;20195;-75
2022/04/22 09:12:38;;;;;;;2.90;2.27;;;;;;;;;;4900023;29;20204;-78
2022/04/22 09:15:07;;;;;;;4.93;2.70;;;;;;;;;;4907213;29;20231;-79
2022/04/22 09:17:38;;;;;;;2.87;2.40;;;;;;;;;;4907545;29;20605;-77
2022/04/22 09:20:06;;;;;;;2.33;2.13;;;;;;;;;;4895885;29;20202;-79
2022/04/22 09:22:50;;;;;;;4.23;2.00;;;;;;;;;;4904377;29;20210;-77
2022/04/22 09:25:24;;;;;;;2.60;2.33;;;;;;;;;;4905908;29;20195;-75
2022/04/22 09:28:09;;;;;;;5.63;2.70;;;;;;;;;;4901959;29;20212;-75
2022/04/22 09:30:36;;;;;;;2.73;2.43;;;;;;;;;;4894809;29;20199;-73
2022/04/22 09:33:03;;;;;;;4.13;2.70;;;;;;;;;;4906737;29;20193;-75
2022/04/22 09:42:38;;;;;;;3.73;2.50;;;;;;;;;;4894519;29;20284;-76
2022/04/22 09:43:57;;;;;;;3.80;2.60;;;;;;;;;;4900148;29;20722;-71
2022/04/22 09:46:30;;;;;;;4.63;2.60;;;;;;;;;;4908201;29;20632;-74
2022/04/22 09:48:58;;;;;;;3.53;2.83;;;;;;;;;;4907835;29;20987;-74
2022/04/22 09:51:27;;;;;;;3.60;2.60;;;;;;;;;;4910340;29;20235;-73
2022/04/22 09:54:00;;;;;;;3.37;2.43;;;;;;;;;;4906541;29;20601;-73
2022/04/22 09:56:28;;;;;;;4.77;2.53;;;;;;;;;;4889914;29;20980;-74
2022/04/22 09:58:56;;;;;;;3.53;2.73;;;;;;;;;;4895228;29;20771;-73
2022/04/22 10:01:23;;;;;;;4.57;2.83;;;;;;;;;;4894968;29;20197;-73
2022/04/22 10:04:10;;;;;;;9.67;3.60;;;;;;;;;;4908400;29;20191;-72
2022/04/22 10:06:38;;;;;;;5.10;3.10;;;;;;;;;;4905972;29;20815;-75
2022/04/22 10:09:05;;;;;;;4.97;3.00;;;;;;;;;;4909063;29;20219;-74
2022/04/22 10:12:02;;;;;;;3.27;2.93;;;;;;;;;;4884145;29;20206;-74
2022/04/22 10:14:35;;;;;;;5.77;2.90;;;;;;;;;;4906523;29;20239;-75
2022/04/22 10:17:02;;;;;;;4.23;3.13;;;;;;;;;;4891304;29;20196;-75
2022/04/22 10:19:31;;;;;;;3.63;2.90;;;;;;;;;;4900913;29;20192;-75
2022/04/22 10:21:59;;;;;;;3.07;2.77;;;;;;;;;;4896422;29;20203;-75
2022/04/22 10:24:26;;;;;;;3.20;2.90;;;;;;;;;;4908768;29;20195;-76
2022/04/22 10:26:54;;;;;;;3.83;2.90;;;;;;;;;;4906689;29;20728;-76
2022/04/22 10:29:20;;;;;;;3.53;2.83;;;;;;;;;;4897725;29;20216;-75
2022/04/22 10:31:47;;;;;;;10.10;3.77;;;;;;;;;;4904594;29;20202;-76
2022/04/22 10:34:15;;;;;;;3.27;2.90;;;;;;;;;;4904683;29;20252;-77
2022/04/22 10:36:43;;;;;;;3.37;2.87;;;;;;;;;;4896967;29;20216;-75
2022/04/22 10:39:34;;;;;;;3.73;3.00;;;;;;;;;;4905646;29;20211;-75
2022/04/22 10:42:01;;;;;;;3.30;3.00;;;;;;;;;;4889387;29;20924;-77
2022/04/22 10:47:14;;;;;;;4.03;3.40;;;;;;;;;;4896384;29;20200;-74
2022/04/22 10:49:42;;;;;;;3.80;3.30;;;;;;;;;;4895126;29;20219;-78
2022/04/22 10:52:10;;;;;;;7.33;3.00;;;;;;;;;;4906223;29;20298;-75
2022/04/22 10:54:52;;;;;;;6.47;3.13;;;;;;;;;;4900229;29;20290;-75
2022/04/22 10:57:29;;;;;;;4.73;3.20;;;;;;;;;;4901033;29;20199;-78
2022/04/22 11:00:06;;;;;;;6.80;3.30;;;;;;;;;;4907231;29;20214;-78
2022/04/22 11:02:35;;;;;;;5.67;3.53;;;;;;;;;;4906318;29;20239;-73
2022/04/22 11:07:47;;;;;;;4.97;3.20;;;;;;;;;;4898739;29;20222;-77
2022/04/22 11:10:14;;;;;;;4.10;3.30;;;;;;;;;;4897759;29;20207;-76
2022/04/22 11:12:54;;;;;;;4.37;3.70;;;;;;;;;;4900713;29;20719;-74
2022/04/22 11:15:39;;;;;;;3.77;3.30;;;;;;;;;;4903926;29;20211;-75
2022/04/22 11:18:07;;;;;;;5.20;3.43;;;;;;;;;;4904927;29;20203;-75
2022/04/22 11:20:59;;;;;;;3.93;3.20;;;;;;;;;;4897483;29;20235;-75
2022/04/22 11:23:33;;;;;;;4.73;3.63;;;;;;;;;;4889876;29;20557;-73
2022/04/22 11:26:00;;;;;;;3.77;3.30;;;;;;;;;;4896183;29;20192;-73
2022/04/22 11:28:26;;;;;;;3.77;3.40;;;;;;;;;;4898518;29;20279;-73
2022/04/22 11:30:53;;;;;;;3.33;3.03;;;;;;;;;;4908202;29;20237;-73
2022/04/22 11:33:24;;;;;;;3.53;3.03;;;;;;;;;;4901198;29;20272;-74
2022/04/22 11:35:57;;;;;;;3.50;3.20;;;;;;;;;;4904944;29;20263;-74
2022/04/22 11:38:24;;;;;;;3.60;3.17;;;;;;;;;;4902618;29;20203;-74
2022/04/22 11:40:51;;;;;;;3.60;3.30;;;;;;;;;;4911581;29;20296;-73
2022/04/22 11:43:35;;;;;;;3.83;3.37;;;;;;;;;;4911774;29;20187;-73
2022/04/22 11:46:02;;;;;;;5.10;3.43;;;;;;;;;;4909006;29;20204;-75
2022/04/22 11:48:30;;;;;;;3.70;3.40;;;;;;;;;;4909317;29;20307;-74
2022/04/22 11:50:58;;;;;;;4.90;3.60;;;;;;;;;;4904943;29;20306;-77
2022/04/22 11:53:32;;;;;;;4.63;3.87;;;;;;;;;;4908913;29;20199;-77
2022/04/22 11:56:02;;;;;;;3.97;3.47;;;;;;;;;;4907980;29;20199;-77
2022/04/22 11:58:29;;;;;;;4.83;3.57;;;;;;;;;;4894386;29;20188;-75
2022/04/22 12:06:38;;;;;;;4.70;3.43;;;;;;;;;;4894483;29;20227;-78
2022/04/22 12:09:05;;;;;;;5.20;3.70;;;;;;;;;;4894654;29;20900;-74
2022/04/22 12:11:42;;;;;;;5.27;3.70;;;;;;;;;;4913935;29;20199;-75
2022/04/22 12:14:11;;;;;;;5.10;3.60;;;;;;;;;;4894715;29;20680;-75
2022/04/22 12:16:38;;;;;;;5.00;3.77;;;;;;;;;;4898422;29;20206;-74
2022/04/22 12:19:06;;;;;;;5.60;3.70;;;;;;;;;;4905474;29;20243;-73
2022/04/22 12:21:50;;;;;;;4.40;3.77;;;;;;;;;;4904109;29;20180;-72
2022/04/22 12:24:21;;;;;;;6.40;4.10;;;;;;;;;;4894729;29;20227;-73
2022/04/22 12:26:51;;;;;;;6.40;3.70;;;;;;;;;;4898499;29;20226;-76
2022/04/22 12:29:18;;;;;;;5.33;3.40;;;;;;;;;;4904722;29;20735;-73
2022/04/22 12:31:52;;;;;;;4.20;3.73;;;;;;;;;;4912621;29;20201;-75
2022/04/22 12:34:38;;;;;;;4.07;3.67;;;;;;;;;;4898334;29;20264;-74
2022/04/22 12:37:08;;;;;;;5.77;3.53;;;;;;;;;;4904911;29;20195;-75
2022/04/22 12:39:36;;;;;;;3.80;3.10;;;;;;;;;;4909186;29;20236;-73
2022/04/22 12:42:05;;;;;;;3.73;3.33;;;;;;;;;;4895396;29;20720;-74
2022/04/22 12:44:32;;;;;;;4.37;3.40;;;;;;;;;;4909965;29;20204;-73
2022/04/22 12:52:57;;;;;;;4.17;3.53;;;;;;;;;;4905544;29;20212;-72
2022/04/22 12:55:24;;;;;;;4.50;3.50;;;;;;;;;;4901704;29;20272;-73
2022/04/22 12:58:00;;;;;;;4.87;3.70;;;;;;;;;;4904978;29;20203;-73
2022/04/22 13:00:27;;;;;;;4.53;3.50;;;;;;;;;;4906021;29;20199;-73
2022/04/22 13:03:12;;;;;;;5.33;3.63;;;;;;;;;;4895760;29;20672;-73
2022/04/22 13:05:39;;;;;;;4.00;3.60;;;;;;;;;;4897689;29;20207;-73
2022/04/22 13:08:09;;;;;;;6.43;3.90;;;;;;;;;;4900021;29;20228;-73
2022/04/22 13:10:37;;;;;;;4.50;3.60;;;;;;;;;;4902612;29;20248;-72
2022/04/22 13:13:09;;;;;;;4.10;3.70;;;;;;;;;;4894717;29;20183;-71
2022/04/22 13:15:36;;;;;;;6.03;3.70;;;;;;;;;;4893601;29;20187;-72
2022/04/22 13:18:03;;;;;;;5.57;3.83;;;;;;;;;;4909207;29;20198;-71
2022/04/22 13:20:47;;;;;;;6.37;4.00;;;;;;;;;;4906055;29;20737;-70
2022/04/22 13:23:14;;;;;;;5.60;3.90;;;;;;;;;;4907581;29;20908;-71
2022/04/22 13:25:41;;;;;;;4.80;3.27;;;;;;;;;;4901089;29;20208;-70
2022/04/22 13:28:07;;;;;;;11.07;3.93;;;;;;;;;;4894477;29;20204;-70
2022/04/22 13:30:38;;;;;;;5.27;4.07;;;;;;;;;;4894532;29;20207;-70
2022/04/22 13:33:22;;;;;;;6.20;4.07;;;;;;;;;;4904279;29;20229;-71
2022/04/22 13:35:54;;;;;;;10.37;4.20;;;;;;;;;;4904002;29;20200;-70
2022/04/22 13:38:21;;;;;;;7.87;3.47;;;;;;;;;;4906022;29;20275;-70
2022/04/22 13:40:47;;;;;;;4.40;4.00;;;;;;;;;;4900877;29;20283;-71
2022/04/22 13:43:14;;;;;;;5.00;3.90;;;;;;;;;;4908540;29;20184;-71
2022/04/22 13:54:17;;;;;;;7.27;4.43;;;;;;;;;;4897032;29;20224;-71
2022/04/22 13:56:44;;;;;;;6.20;3.60;;;;;;;;;;4893213;29;20238;-71
2022/04/22 13:59:10;;;;;;;6.90;4.10;;;;;;;;;;4907574;29;20271;-70
2022/04/22 14:01:37;;;;;;;6.40;3.90;;;;;;;;;;4900695;29;20873;-70
2022/04/22 14:04:04;;;;;;;3.67;3.37;;;;;;;;;;4900009;29;20696;-70
2022/04/22 14:06:31;;;;;;;6.43;3.90;;;;;;;;;;4900785;29;20203;-70
2022/04/22 14:08:59;;;;;;;4.50;3.90;;;;;;;;;;4902268;29;20240;-71
2022/04/22 14:11:28;;;;;;;5.47;4.07;;;;;;;;;;4906112;29;20227;-70
2022/04/22 14:13:55;;;;;;;5.33;3.90;;;;;;;;;;4897381;29;20287;-71
2022/04/22 14:16:23;;;;;;;5.73;3.97;;;;;;;;;;4905213;29;20207;-71
2022/04/22 14:18:52;;;;;;;4.73;4.27;;;;;;;;;;4899412;29;20212;-73
2022/04/22 14:21:19;;;;;;;4.87;3.97;;;;;;;;;;4904223;29;20744;-74
2022/04/22 14:23:50;;;;;;;6.20;4.27;;;;;;;;;;4905305;29;20204;-75
2022/04/22 14:26:20;;;;;;;5.97;3.93;;;;;;;;;;4904999;29;20243;-73
2022/04/22 14:29:14;;;;;;;6.30;4.07;;;;;;;;;;4899100;29;20219;-73
2022/04/22 14:31:42;;;;;;;6.23;4.03;;;;;;;;;;4908432;29;20196;-73
2022/04/22 14:34:17;;;;;;;9.53;4.10;;;;;;;;;;4906633;29;20706;-74
2022/04/22 14:36:50;;;;;;;5.00;3.87;;;;;;;;;;4905846;29;20188;-75
2022/04/22 14:39:17;;;;;;;6.17;4.10;;;;;;;;;;4873898;29;21344;-73
2022/04/22 14:41:48;;;;;;;6.60;4.20;;;;;;;;;;4905381;29;20302;-74
2022/04/22 14:44:22;;;;;;;5.53;4.03;;;;;;;;;;4906116;29;20231;-73
2022/04/22 14:47:14;;;;;;;5.67;3.70;;;;;;;;;;4906942;29;20180;-75
2022/04/22 14:49:43;;;;;;;4.93;4.00;;;;;;;;;;4896808;29;20220;-73
2022/04/22 14:52:28;;;;;;;5.67;4.03;;;;;;;;;;4905741;29;20571;-73
2022/04/22 14:54:57;;;;;;;6.03;4.50;;;;;;;;;;4907363;29;20623;-74
2022/04/22 14:57:27;;;;;;;6.27;4.00;;;;;;;;;;4904258;29;20207;-75
2022/04/22 14:59:57;;;;;;;6.20;4.60;;;;;;;;;;4901103;29;20203;-75
2022/04/22 15:02:24;;;;;;;5.53;4.10;;;;;;;;;;4907577;29;20198;-75
2022/04/22 15:04:52;;;;;;;4.80;4.30;;;;;;;;;;4895648;29;20207;-74
2022/04/22 15:07:27;;;;;;;4.97;4.47;;;;;;;;;;4897392;29;20283;-74
2022/04/22 15:09:57;;;;;;;6.03;4.63;;;;;;;;;;4898291;29;20287;-75
2022/04/22 15:12:25;;;;;;;8.50;5.27;;;;;;;;;;4896449;29;20235;-73
2022/04/22 15:14:52;;;;;;;5.90;4.77;;;;;;;;;;4904876;29;20196;-74
2022/04/22 15:26:12;;;;;;;5.73;4.77;;;;;;;;;;4915863;29;20194;-72
2022/04/22 15:28:38;;;;;;;5.90;4.73;;;;;;;;;;4905517;29;20560;-72
2022/04/22 15:31:11;;;;;;;6.23;4.73;;;;;;;;;;4897227;29;20319;-73
2022/04/22 15:33:40;;;;;;;6.97;4.93;;;;;;;;;;4881082;29;20246;-73
2022/04/22 15:36:08;;;;;;;9.03;5.07;;;;;;;;;;4880314;29;20526;-74
2022/04/22 15:38:35;;;;;;;7.07;5.00;;;;;;;;;;4864758;29;20284;-63
2022/04/22 15:41:20;;;;;;;5.20;4.70;;;;;;;;;;4902143;29;20645;-63
2022/04/22 15:43:51;;;;;;;5.77;4.97;;;;;;;;;;4891672;29;20262;-64
2022/04/22 15:46:18;;;;;;;5.70;4.80;;;;;;;;;;4886063;29;20720;-64
2022/04/22 15:48:46;;;;;;;5.63;5.07;;;;;;;;;;4892582;29;20192;-65
2022/04/22 15:51:14;;;;;;;5.80;4.47;;;;;;;;;;4895560;29;20478;-63
2022/04/22 15:53:41;;;;;;;7.60;4.70;;;;;;;;;;4893894;29;20196;-63
2022/04/22 15:56:11;;;;;;;8.93;4.77;;;;;;;;;;4896857;29;20596;-64
2022/04/22 15:58:41;;;;;;;7.97;4.87;;;;;;;;;;4910518;29;20200;-65
2022/04/22 16:01:12;;;;;;;6.90;4.60;;;;;;;;;;4903838;29;20291;-63
2022/04/22 16:03:58;;;;;;;5.30;4.57;;;;;;;;;;4877682;29;20252;-64
2022/04/22 16:06:25;;;;;;;13.37;5.07;;;;;;;;;;4861200;29;20621;-64
2022/04/22 16:08:52;;;;;;;5.23;4.63;;;;;;;;;;4877571;29;20296;-67
2022/04/22 16:16:53;;;;;;;6.07;4.70;;;;;;;;;;4877823;29;20208;-65
2022/04/22 16:19:20;;;;;;;6.83;4.30;;;;;;;;;;4861426;29;20181;-65
2022/04/22 16:21:47;;;;;;;7.93;4.80;;;;;;;;;;4886561;29;20201;-65
2022/04/22 16:24:14;;;;;;;5.50;4.33;;;;;;;;;;4898577;29;20199;-65
2022/04/22 16:26:41;;;;;;;12.23;4.40;;;;;;;;;;4901051;29;20184;-67
2022/04/22 16:29:08;;;;;;;5.50;4.00;;;;;;;;;;4884894;29;20211;-67